createdAt,value
2023-01-17T00:01:28.725Z,37.26
2023-01-17T00:03:55.181Z,37.42
2023-01-17T00:06:23.186Z,37.41
2023-01-17T00:08:49.551Z,37.40
2023-01-17T00:11:15.887Z,37.43
2023-01-17T00:13:42.238Z,37.30
2023-01-17T00:16:08.752Z,37.44
2023-01-17T00:18:35.105Z,37.67
2023-01-17T00:21:01.478Z,37.42
2023-01-17T00:23:29.189Z,37.37
2023-01-17T00:25:55.556Z,37.39
2023-01-17T00:28:22.025Z,37.64
2023-01-17T00:30:48.397Z,37.55
2023-01-17T00:33:14.745Z,37.45
2023-01-17T00:35:41.336Z,37.52
2023-01-17T00:38:08.936Z,37.42
2023-01-17T00:40:37.529Z,37.45
2023-01-17T00:43:04.921Z,37.46
2023-01-17T00:45:31.222Z,37.47
2023-01-17T00:47:57.685Z,37.52
2023-01-17T00:50:24.035Z,37.56
2023-01-17T00:52:50.390Z,37.55
2023-01-17T00:55:16.803Z,37.57
2023-01-17T00:57:44.468Z,37.42
2023-01-17T01:00:11.179Z,37.52
2023-01-17T01:02:38.312Z,37.56
2023-01-17T01:05:04.902Z,37.50
2023-01-17T01:07:31.275Z,37.50
2023-01-17T01:09:57.626Z,37.51
2023-01-17T01:12:23.982Z,37.48
2023-01-17T01:14:51.628Z,37.48
2023-01-17T01:17:17.983Z,37.67
2023-01-17T01:19:44.480Z,37.57
2023-01-17T01:22:10.849Z,37.56
2023-01-17T01:24:37.242Z,37.52
2023-01-17T01:27:03.782Z,37.58
2023-01-17T01:29:30.118Z,37.61
2023-01-17T01:31:57.754Z,37.52
2023-01-17T01:34:24.125Z,37.64
2023-01-17T01:36:50.432Z,37.56
2023-01-17T01:39:16.750Z,37.64
2023-01-17T01:41:43.086Z,37.63
2023-01-17T01:44:24.271Z,37.72
2023-01-17T01:46:50.637Z,37.69
2023-01-17T01:49:20.546Z,37.67
2023-01-17T01:51:50.468Z,37.66
2023-01-17T01:54:20.664Z,37.67
2023-01-17T01:56:47.761Z,37.73
2023-01-17T01:59:15.822Z,37.76
2023-01-17T02:01:42.323Z,37.75
2023-01-17T02:04:09.271Z,37.74
2023-01-17T02:06:38.522Z,37.77
2023-01-17T02:09:06.241Z,37.67
2023-01-17T02:11:33.518Z,37.79
2023-01-17T02:13:59.973Z,37.73
2023-01-17T02:16:32.586Z,37.54
2023-01-17T02:19:03.207Z,37.54
2023-01-17T02:21:31.757Z,37.34
2023-01-17T02:24:15.586Z,37.25
2023-01-17T02:26:47.969Z,37.17
2023-01-17T02:29:24.226Z,37.15
2023-01-17T02:31:55.145Z,37.11
2023-01-17T02:34:24.709Z,37.16
2023-01-17T02:36:52.632Z,37.05
2023-01-17T02:39:21.370Z,36.92
2023-01-17T02:41:51.233Z,37.09
2023-01-17T02:44:19.172Z,36.79
2023-01-17T02:46:45.787Z,36.97
2023-01-17T02:49:14.334Z,36.85
2023-01-17T02:51:48.928Z,36.96
2023-01-17T02:54:25.327Z,36.77
2023-01-17T02:56:59.184Z,36.88
2023-01-17T02:59:33.492Z,36.62
2023-01-17T03:02:08.895Z,36.67
2023-01-17T03:04:40.400Z,36.66
2023-01-17T03:07:09.382Z,36.73
2023-01-17T03:09:36.059Z,36.57
2023-01-17T03:12:03.518Z,36.64
2023-01-17T03:14:30.418Z,36.54
2023-01-17T03:16:56.858Z,36.48
2023-01-17T03:19:23.225Z,36.52
2023-01-17T03:21:50.867Z,36.51
2023-01-17T03:24:17.174Z,36.40
2023-01-17T03:26:43.689Z,36.43
2023-01-17T03:29:10.029Z,36.39
2023-01-17T03:31:36.371Z,36.28
2023-01-17T03:34:02.862Z,36.11
2023-01-17T03:36:29.243Z,36.09
2023-01-17T03:38:56.890Z,36.08
2023-01-17T03:41:23.218Z,36.02
2023-01-17T03:43:49.541Z,36.06
2023-01-17T03:46:20.641Z,36.04
2023-01-17T03:48:47.167Z,36.06
2023-01-17T03:51:13.476Z,36.04
2023-01-17T03:53:39.838Z,36.08
2023-01-17T03:56:07.986Z,35.89
2023-01-17T03:58:34.423Z,35.81
2023-01-17T04:01:00.887Z,35.75
2023-01-17T04:03:27.285Z,35.92
2023-01-17T04:05:53.706Z,35.80
2023-01-17T04:08:20.046Z,35.83
2023-01-17T04:10:46.400Z,35.77
2023-01-17T04:13:14.017Z,35.69
2023-01-17T04:15:40.467Z,35.67
2023-01-17T04:18:07.090Z,35.52
2023-01-17T04:20:34.457Z,35.49
2023-01-17T04:23:01.174Z,35.43
2023-01-17T04:25:27.905Z,35.60
2023-01-17T04:27:54.290Z,35.50
2023-01-17T04:30:22.178Z,35.60
2023-01-17T04:32:48.808Z,35.60
2023-01-17T04:35:15.197Z,35.33
2023-01-17T04:37:41.611Z,35.32
2023-01-17T04:40:08.564Z,35.55
2023-01-17T04:42:34.903Z,35.24
2023-01-17T04:45:01.278Z,35.51
2023-01-17T04:47:29.053Z,35.34
2023-01-17T04:49:55.500Z,35.33
2023-01-17T04:52:21.892Z,35.29
2023-01-17T04:54:48.239Z,35.16
2023-01-17T04:57:14.639Z,35.10
2023-01-17T04:59:40.932Z,35.27
2023-01-17T05:02:07.537Z,35.30
2023-01-17T05:04:35.325Z,35.27
2023-01-17T05:07:01.668Z,35.11
2023-01-17T05:09:28.128Z,35.19
2023-01-17T05:11:54.498Z,35.14
2023-01-17T05:14:20.871Z,35.03
2023-01-17T05:16:47.248Z,35.08
2023-01-17T05:19:13.742Z,35.09
2023-01-17T05:21:41.383Z,35.08
2023-01-17T05:24:07.940Z,35.02
2023-01-17T05:26:34.269Z,34.84
2023-01-17T05:29:00.585Z,35.10
2023-01-17T05:31:26.940Z,34.95
2023-01-17T05:33:53.402Z,35.04
2023-01-17T05:36:21.165Z,35.04
2023-01-17T05:38:48.947Z,34.89
2023-01-17T05:41:15.381Z,34.84
2023-01-17T05:43:41.698Z,34.93
2023-01-17T05:46:08.100Z,34.99
2023-01-17T05:48:34.527Z,34.93
2023-01-17T05:51:01.015Z,34.87
2023-01-17T05:53:27.926Z,34.99
2023-01-17T05:55:55.677Z,34.79
2023-01-17T05:58:22.418Z,34.73
2023-01-17T06:00:49.213Z,34.86
2023-01-17T06:03:15.689Z,34.81
2023-01-17T06:05:42.359Z,34.72
2023-01-17T06:08:08.749Z,34.71
2023-01-17T06:10:35.071Z,34.46
2023-01-17T06:13:04.575Z,34.78
2023-01-17T06:15:31.222Z,36.34
2023-01-17T06:17:57.568Z,36.14
2023-01-17T06:20:23.924Z,35.54
2023-01-17T06:22:50.329Z,35.44
2023-01-17T06:25:16.692Z,35.40
2023-01-17T06:27:43.035Z,34.95
2023-01-17T06:30:11.156Z,35.14
2023-01-17T06:32:37.480Z,35.00
2023-01-17T06:35:03.972Z,35.07
2023-01-17T06:37:30.494Z,34.99
2023-01-17T06:39:56.822Z,35.05
2023-01-17T06:42:23.298Z,34.81
2023-01-17T06:44:49.728Z,34.95
2023-01-17T06:47:17.395Z,34.88
2023-01-17T06:49:43.742Z,34.92
2023-01-17T06:52:10.148Z,34.92
2023-01-17T06:54:36.480Z,34.95
2023-01-17T06:57:02.875Z,34.84
2023-01-17T06:59:29.225Z,34.97
2023-01-17T07:01:55.543Z,34.96
2023-01-17T07:04:23.202Z,34.77
2023-01-17T07:06:49.554Z,34.93
2023-01-17T07:09:16.077Z,34.90
2023-01-17T07:11:42.444Z,34.83
2023-01-17T07:14:11.773Z,34.72
2023-01-17T07:16:38.291Z,34.61
2023-01-17T07:19:04.658Z,34.35
2023-01-17T07:21:32.389Z,34.48
2023-01-17T07:23:58.751Z,34.74
2023-01-17T07:26:25.052Z,35.32
2023-01-17T07:28:51.481Z,35.87
2023-01-17T07:31:17.895Z,34.40
2023-01-17T07:33:44.243Z,34.83
2023-01-17T07:36:10.868Z,34.78
2023-01-17T07:38:38.588Z,34.84
2023-01-17T07:41:05.294Z,34.97
2023-01-17T07:43:31.743Z,35.02
2023-01-17T07:45:58.144Z,35.51
2023-01-17T07:48:24.905Z,35.21
2023-01-17T07:50:52.153Z,35.32
2023-01-17T07:53:18.494Z,35.03
2023-01-17T07:55:46.159Z,34.95
2023-01-17T07:58:12.495Z,34.82
2023-01-17T08:00:38.914Z,34.92
2023-01-17T08:03:05.455Z,34.88
2023-01-17T08:05:32.040Z,35.00
2023-01-17T08:07:58.437Z,35.16
2023-01-17T08:10:24.790Z,35.33
2023-01-17T08:12:52.582Z,35.45
2023-01-17T08:15:19.026Z,35.52
2023-01-17T08:17:45.820Z,35.98
2023-01-17T08:20:12.614Z,35.74
2023-01-17T08:22:38.979Z,36.58
2023-01-17T08:25:05.608Z,37.28
2023-01-17T08:27:32.068Z,37.35
2023-01-17T08:29:59.771Z,37.84
2023-01-17T08:32:26.109Z,36.99
2023-01-17T08:34:52.510Z,36.50
2023-01-17T08:37:18.873Z,36.48
2023-01-17T08:39:45.250Z,36.13
2023-01-17T08:42:11.633Z,36.46
2023-01-17T08:44:38.105Z,36.35
2023-01-17T08:47:06.048Z,36.63
2023-01-17T08:49:32.479Z,36.46
2023-01-17T08:51:58.998Z,36.12
2023-01-17T08:54:25.857Z,36.21
2023-01-17T08:56:52.704Z,36.35
2023-01-17T08:59:19.056Z,36.27
2023-01-17T09:01:45.592Z,35.98
2023-01-17T09:04:13.975Z,36.16
2023-01-17T09:06:41.287Z,36.08
2023-01-17T09:09:08.300Z,36.59
2023-01-17T09:11:34.827Z,36.54
2023-01-17T09:14:01.186Z,36.60
2023-01-17T09:16:27.755Z,36.21
2023-01-17T09:18:54.206Z,36.50
2023-01-17T09:21:22.008Z,36.31
2023-01-17T09:23:48.568Z,35.82
2023-01-17T09:26:18.028Z,35.91
2023-01-17T09:28:44.558Z,36.28
2023-01-17T09:31:11.144Z,36.18
2023-01-17T09:33:38.103Z,36.39
2023-01-17T09:36:04.716Z,36.52
2023-01-17T09:38:32.548Z,36.53
2023-01-17T09:40:58.912Z,36.56
2023-01-17T09:43:32.194Z,36.79
2023-01-17T09:45:58.557Z,36.73
2023-01-17T09:48:28.493Z,36.85
2023-01-17T09:50:58.865Z,36.74
2023-01-17T09:53:26.079Z,36.73
2023-01-17T09:56:00.895Z,36.98
2023-01-17T09:58:34.366Z,36.88
2023-01-17T10:01:07.528Z,36.95
2023-01-17T10:03:43.494Z,37.01
2023-01-17T10:06:16.187Z,37.06
2023-01-17T10:08:49.100Z,37.47
2023-01-17T10:11:25.275Z,37.31
2023-01-17T10:13:57.551Z,36.98
2023-01-17T10:16:30.376Z,37.04
2023-01-17T10:19:06.850Z,37.14
2023-01-17T10:21:37.718Z,36.98
2023-01-17T10:24:21.304Z,37.00
2023-01-17T10:26:50.379Z,37.21
2023-01-17T10:29:20.053Z,37.29
2023-01-17T10:31:51.570Z,37.27
2023-01-17T10:34:19.459Z,37.18
2023-01-17T10:36:49.402Z,37.30
2023-01-17T10:39:19.076Z,37.16
2023-01-17T10:41:47.434Z,37.25
2023-01-17T10:44:18.536Z,37.11
2023-01-17T10:46:47.095Z,36.43
2023-01-17T10:49:16.251Z,37.11
2023-01-17T10:51:48.253Z,36.83
2023-01-17T10:54:20.071Z,36.64
2023-01-17T10:56:47.573Z,36.63
2023-01-17T10:59:18.815Z,36.43
2023-01-17T11:01:45.575Z,36.57
2023-01-17T11:04:16.365Z,36.61
2023-01-17T11:06:57.358Z,36.57
2023-01-17T11:09:36.704Z,36.67
2023-01-17T11:12:03.162Z,36.62
2023-01-17T11:14:31.783Z,35.66
2023-01-17T11:16:58.923Z,35.80
2023-01-17T11:19:27.334Z,35.69
2023-01-17T11:21:54.890Z,35.93
2023-01-17T11:24:26.361Z,35.60
2023-01-17T11:26:52.700Z,35.70
2023-01-17T11:29:34.643Z,35.63
2023-01-17T11:32:12.174Z,35.69
2023-01-17T11:34:38.532Z,35.71
2023-01-17T11:37:08.985Z,35.29
2023-01-17T11:39:35.417Z,35.60
2023-01-17T11:42:05.824Z,35.90
2023-01-17T11:44:34.071Z,35.96
2023-01-17T11:47:09.804Z,36.18
2023-01-17T11:49:36.259Z,36.24
2023-01-17T11:52:07.944Z,36.03
2023-01-17T11:54:34.965Z,35.93
2023-01-17T11:57:01.576Z,35.96
2023-01-17T11:59:29.531Z,36.14
2023-01-17T12:02:04.136Z,35.51
2023-01-17T12:04:35.034Z,35.32
2023-01-17T12:07:10.535Z,35.53
2023-01-17T12:09:42.460Z,35.39
2023-01-17T12:12:14.056Z,35.91
2023-01-17T12:14:45.635Z,35.36
2023-01-17T12:17:26.023Z,35.87
2023-01-17T12:19:56.382Z,35.87
2023-01-17T12:22:28.708Z,35.86
2023-01-17T12:25:00.717Z,35.76
2023-01-17T12:27:33.710Z,35.74
2023-01-17T12:30:07.796Z,36.20
2023-01-17T12:32:40.451Z,35.89
2023-01-17T12:35:11.706Z,35.67
2023-01-17T12:37:40.194Z,35.75
2023-01-17T12:40:15.040Z,35.60
2023-01-17T12:42:43.863Z,35.84
2023-01-17T12:45:13.273Z,35.98
2023-01-17T12:47:44.374Z,35.66
2023-01-17T12:50:20.797Z,35.94
2023-01-17T12:52:54.656Z,36.10
2023-01-17T12:55:27.555Z,36.41
2023-01-17T12:57:56.961Z,36.25
2023-01-17T13:00:25.752Z,36.25
2023-01-17T13:02:57.347Z,36.17
2023-01-17T13:05:26.508Z,36.28
2023-01-17T13:07:56.300Z,36.30
2023-01-17T13:10:28.540Z,36.35
2023-01-17T13:12:59.071Z,36.26
2023-01-17T13:15:27.801Z,36.52
2023-01-17T13:18:03.655Z,36.31
2023-01-17T13:20:33.261Z,36.43
2023-01-17T13:23:03.881Z,36.52
2023-01-17T13:25:35.288Z,36.54
2023-01-17T13:28:02.902Z,36.50
2023-01-17T13:30:35.772Z,36.54
2023-01-17T13:33:10.451Z,36.52
2023-01-17T13:35:39.145Z,36.56
2023-01-17T13:38:16.113Z,35.69
2023-01-17T13:40:50.876Z,36.09
2023-01-17T13:43:19.946Z,35.93
2023-01-17T13:45:52.196Z,35.68
2023-01-17T13:48:29.084Z,35.94
2023-01-17T13:50:56.313Z,35.49
2023-01-17T13:53:32.835Z,35.30
2023-01-17T13:56:02.205Z,35.52
2023-01-17T13:58:28.660Z,35.78
2023-01-17T14:00:57.508Z,35.54
2023-01-17T14:03:38.756Z,35.84
2023-01-17T14:06:27.780Z,35.36
2023-01-17T14:08:54.333Z,35.49
2023-01-17T14:11:20.771Z,35.50
2023-01-17T14:13:47.131Z,35.13
2023-01-17T14:16:25.468Z,35.24
2023-01-17T14:18:52.469Z,35.08
2023-01-17T14:21:22.111Z,35.03
2023-01-17T14:23:51.423Z,34.54
2023-01-17T14:26:20.971Z,34.84
2023-01-17T14:28:47.592Z,35.17
2023-01-17T14:31:15.236Z,34.85
2023-01-17T14:33:41.935Z,34.62
2023-01-17T14:36:12.269Z,34.61
2023-01-17T14:38:43.233Z,34.77
2023-01-17T14:41:11.146Z,34.82
2023-01-17T14:43:40.836Z,35.36
2023-01-17T14:46:08.800Z,35.78
2023-01-17T14:48:39.111Z,36.24
2023-01-17T14:51:11.507Z,36.46
2023-01-17T14:53:38.030Z,36.36
2023-01-17T14:56:13.747Z,36.07
2023-01-17T14:58:40.169Z,36.55
2023-01-17T15:01:11.060Z,36.38
2023-01-17T15:03:43.269Z,36.24
2023-01-17T15:06:11.257Z,36.53
2023-01-17T15:08:37.681Z,36.27
2023-01-17T15:11:05.800Z,36.13
2023-01-17T15:13:43.749Z,36.27
2023-01-17T15:16:18.104Z,36.27
2023-01-17T15:18:44.940Z,36.52
2023-01-17T15:21:14.280Z,36.56
2023-01-17T15:23:43.745Z,36.83
2023-01-17T15:26:13.747Z,37.07
2023-01-17T15:28:41.980Z,37.04
2023-01-17T15:31:19.087Z,36.87
2023-01-17T15:33:46.552Z,37.09
2023-01-17T15:36:22.139Z,36.99
2023-01-17T15:38:51.297Z,36.93
2023-01-17T15:41:21.298Z,36.92
2023-01-17T15:43:49.183Z,36.78
2023-01-17T15:46:24.772Z,36.50
2023-01-17T15:48:51.425Z,36.71
2023-01-17T15:51:30.051Z,36.74
2023-01-17T15:53:56.503Z,36.51
2023-01-17T15:56:29.200Z,36.63
2023-01-17T15:59:17.029Z,36.43
2023-01-17T16:01:52.113Z,35.96
2023-01-17T16:04:30.990Z,36.30
2023-01-17T16:07:11.300Z,36.03
2023-01-17T16:09:43.789Z,35.89
2023-01-17T16:12:16.225Z,36.20
2023-01-17T16:15:02.539Z,36.47
2023-01-17T16:17:30.739Z,36.53
2023-01-17T16:20:06.570Z,36.51
2023-01-17T16:22:33.270Z,36.68
2023-01-17T16:24:59.723Z,36.48
2023-01-17T16:27:26.091Z,35.98
2023-01-17T16:29:56.352Z,35.96
2023-01-17T16:32:22.815Z,36.13
2023-01-17T16:34:49.197Z,35.44
2023-01-17T16:37:15.538Z,35.35
2023-01-17T16:39:41.866Z,35.44
2023-01-17T16:42:11.018Z,35.18
2023-01-17T16:44:37.386Z,35.12
2023-01-17T16:47:05.024Z,34.82
2023-01-17T16:49:32.400Z,35.04
2023-01-17T16:51:58.978Z,35.19
2023-01-17T16:54:25.422Z,34.80
2023-01-17T16:56:51.937Z,34.87
2023-01-17T16:59:18.346Z,34.76
2023-01-17T17:01:44.860Z,34.78
2023-01-17T17:04:12.591Z,35.00
2023-01-17T17:06:39.175Z,34.82
2023-01-17T17:09:05.567Z,34.75
2023-01-17T17:11:31.874Z,34.43
2023-01-17T17:13:58.299Z,34.59
2023-01-17T17:16:26.383Z,34.63
2023-01-17T17:18:55.110Z,34.60
2023-01-17T17:21:23.118Z,34.52
2023-01-17T17:23:51.815Z,34.52
2023-01-17T17:26:18.162Z,34.40
2023-01-17T17:28:44.651Z,34.56
2023-01-17T17:31:11.067Z,34.59
2023-01-17T17:33:37.467Z,34.48
2023-01-17T17:36:04.988Z,34.54
2023-01-17T17:38:32.690Z,34.50
2023-01-17T17:41:03.717Z,34.59
2023-01-17T17:43:30.109Z,34.68
2023-01-17T17:45:56.408Z,34.75
2023-01-17T17:48:22.687Z,34.69
2023-01-17T17:50:55.195Z,34.54
2023-01-17T17:53:21.601Z,34.41
2023-01-17T17:55:49.209Z,34.56
2023-01-17T17:58:15.607Z,34.58
2023-01-17T18:00:42.027Z,34.46
2023-01-17T18:03:08.383Z,34.63
2023-01-17T18:05:34.768Z,34.57
2023-01-17T18:08:01.093Z,34.46
2023-01-17T18:10:27.424Z,34.57
2023-01-17T18:12:55.092Z,34.82
2023-01-17T18:15:21.464Z,34.66
2023-01-17T18:17:47.756Z,34.79
2023-01-17T18:20:14.104Z,34.90
2023-01-17T18:22:40.553Z,34.96
2023-01-17T18:25:07.664Z,35.00
2023-01-17T18:27:33.992Z,34.95
2023-01-17T18:30:01.658Z,34.99
2023-01-17T18:32:28.107Z,34.97
2023-01-17T18:34:54.439Z,35.10
2023-01-17T18:37:20.808Z,35.10
2023-01-17T18:39:47.244Z,35.03
2023-01-17T18:42:13.575Z,35.05
2023-01-17T18:44:39.947Z,35.06
2023-01-17T18:47:07.623Z,35.16
2023-01-17T18:49:34.117Z,35.20
2023-01-17T18:52:00.530Z,35.18
2023-01-17T18:54:26.931Z,35.18
2023-01-17T18:56:54.213Z,35.42
2023-01-17T18:59:20.544Z,35.09
2023-01-17T19:01:47.149Z,35.22
2023-01-17T19:04:15.887Z,35.15
2023-01-17T19:06:43.183Z,35.26
2023-01-17T19:09:11.141Z,35.15
2023-01-17T19:11:37.473Z,35.25
2023-01-17T19:14:04.116Z,35.13
2023-01-17T19:16:31.963Z,35.13
2023-01-17T19:19:01.305Z,35.16
2023-01-17T19:21:29.081Z,35.31
2023-01-17T19:23:56.084Z,35.39
2023-01-17T19:26:22.636Z,35.26
2023-01-17T19:28:49.661Z,35.41
2023-01-17T19:31:17.040Z,35.44
2023-01-17T19:33:44.553Z,35.32
2023-01-17T19:36:12.421Z,35.38
2023-01-17T19:38:40.088Z,35.36
2023-01-17T19:41:07.290Z,35.37
2023-01-17T19:43:33.718Z,35.47
2023-01-17T19:46:00.470Z,35.41
2023-01-17T19:48:27.365Z,35.52
2023-01-17T19:50:53.831Z,35.41
2023-01-17T19:53:20.192Z,35.34
2023-01-17T19:55:47.871Z,35.39
2023-01-17T19:58:14.252Z,35.49
2023-01-17T20:00:46.560Z,35.43
2023-01-17T20:03:13.366Z,35.49
2023-01-17T20:05:39.693Z,35.42
2023-01-17T20:08:06.146Z,35.43
2023-01-17T20:10:32.463Z,35.53
2023-01-17T20:13:00.106Z,35.41
2023-01-17T20:15:26.538Z,35.55
2023-01-17T20:17:52.892Z,35.60
2023-01-17T20:20:19.209Z,35.45
2023-01-17T20:22:45.723Z,35.39
2023-01-17T20:25:12.383Z,35.35
2023-01-17T20:27:39.340Z,35.51
2023-01-17T20:30:19.200Z,35.26
2023-01-17T20:32:46.355Z,35.46
2023-01-17T20:35:12.740Z,35.25
2023-01-17T20:37:39.089Z,35.25
2023-01-17T20:40:06.020Z,35.32
2023-01-17T20:42:35.510Z,35.20
2023-01-17T20:45:01.858Z,35.19
2023-01-17T20:47:29.500Z,35.17
2023-01-17T20:49:55.823Z,35.13
2023-01-17T20:52:22.137Z,35.21
2023-01-17T20:54:48.525Z,35.20
2023-01-17T20:57:14.924Z,35.01
2023-01-17T20:59:41.288Z,35.11
2023-01-17T21:02:08.857Z,35.20
2023-01-17T21:04:36.862Z,35.12
2023-01-17T21:07:03.242Z,35.05
2023-01-17T21:09:29.632Z,35.04
2023-01-17T21:11:56.196Z,35.07
2023-01-17T21:14:22.539Z,34.99
2023-01-17T21:16:48.978Z,35.11
2023-01-17T21:19:15.570Z,35.19
2023-01-17T21:21:43.285Z,35.19
2023-01-17T21:24:09.864Z,35.09
2023-01-17T21:26:36.334Z,35.03
2023-01-17T21:29:02.710Z,35.15
2023-01-17T21:31:30.119Z,34.96
2023-01-17T21:33:57.471Z,34.98
2023-01-17T21:36:25.458Z,34.99
2023-01-17T21:38:54.024Z,35.00
2023-01-17T21:41:21.447Z,34.95
2023-01-17T21:43:47.973Z,34.95
2023-01-17T21:46:14.349Z,34.87
2023-01-17T21:48:40.735Z,34.95
2023-01-17T21:51:07.764Z,34.90
2023-01-17T21:53:34.304Z,34.93
2023-01-17T21:56:02.258Z,34.97
2023-01-17T21:58:28.564Z,34.90
2023-01-17T22:00:55.010Z,34.96
2023-01-17T22:03:21.343Z,35.02
2023-01-17T22:05:47.668Z,34.93
2023-01-17T22:08:14.110Z,34.76
2023-01-17T22:10:40.735Z,34.96
2023-01-17T22:13:08.381Z,34.91
2023-01-17T22:15:34.879Z,34.95
2023-01-17T22:18:01.261Z,34.98
2023-01-17T22:20:27.607Z,34.97
2023-01-17T22:22:54.093Z,34.79
2023-01-17T22:25:20.689Z,34.64
2023-01-17T22:27:47.039Z,34.98
2023-01-17T22:30:15.238Z,34.99
2023-01-17T22:32:41.605Z,35.02
2023-01-17T22:35:08.538Z,34.95
2023-01-17T22:37:34.893Z,34.93
2023-01-17T22:40:01.411Z,34.96
2023-01-17T22:42:27.777Z,34.88
2023-01-17T22:44:54.090Z,34.70
2023-01-17T22:47:21.828Z,34.80
2023-01-17T22:49:48.188Z,34.98
2023-01-17T22:52:14.500Z,34.83
2023-01-17T22:54:40.862Z,34.80
2023-01-17T22:57:07.162Z,34.80
2023-01-17T22:59:33.656Z,34.88
2023-01-17T23:01:59.966Z,34.84
2023-01-17T23:04:27.683Z,34.72
2023-01-17T23:06:54.224Z,34.67
2023-01-17T23:09:20.851Z,34.72
2023-01-17T23:11:48.327Z,34.62
2023-01-17T23:14:15.782Z,34.84
2023-01-17T23:16:43.132Z,34.71
2023-01-17T23:19:09.658Z,34.65
2023-01-17T23:21:37.354Z,34.64
2023-01-17T23:24:03.959Z,34.58
2023-01-17T23:26:30.425Z,34.64
2023-01-17T23:28:56.964Z,34.74
2023-01-17T23:31:23.495Z,34.53
2023-01-17T23:33:50.036Z,34.56
2023-01-17T23:36:16.462Z,34.72
2023-01-17T23:38:44.190Z,34.55
2023-01-17T23:41:10.625Z,34.45
2023-01-17T23:43:37.243Z,34.49
2023-01-17T23:46:04.103Z,34.42
2023-01-17T23:48:31.018Z,34.42
2023-01-17T23:50:58.446Z,34.39
2023-01-17T23:53:25.176Z,34.45
2023-01-17T23:55:53.874Z,34.36
2023-01-17T23:58:21.387Z,34.37
